createdAt,value
2019-04-13T02:02:54.323Z,13.77
2019-04-13T02:05:49.673Z,11.53
2019-04-13T02:09:02.649Z,20.20
2019-04-13T02:11:40.013Z,4.53
2019-04-13T02:14:13.760Z,12.13
2019-04-13T02:16:48.035Z,7.90
2019-04-13T02:19:23.165Z,20.33
2019-04-13T02:21:57.194Z,16.33
2019-04-13T02:24:31.456Z,9.43
2019-04-13T02:27:05.142Z,7.40
2019-04-13T02:29:39.116Z,8.50
2019-04-13T02:32:14.592Z,5.97
2019-04-13T02:34:50.215Z,10.07
2019-04-13T02:37:26.528Z,5.70
2019-04-13T02:40:01.004Z,7.50
2019-04-13T02:42:35.614Z,6.80
2019-04-13T02:45:09.782Z,4.63
2019-04-13T02:47:45.964Z,3.13
2019-04-13T02:50:19.486Z,6.47
2019-04-13T02:52:52.625Z,4.20
2019-04-13T02:55:44.388Z,5.60
2019-04-13T02:58:19.070Z,7.57
2019-04-13T03:00:53.241Z,13.43
2019-04-13T03:03:27.197Z,27.17
2019-04-13T03:06:01.082Z,23.07
2019-04-13T03:08:36.563Z,18.80
2019-04-13T03:11:10.459Z,20.97
2019-04-13T03:13:44.206Z,4.13
2019-04-13T03:16:39.807Z,9.53
2019-04-13T03:19:28.104Z,4.33
2019-04-13T03:22:02.064Z,5.50
2019-04-13T03:24:37.453Z,6.70
2019-04-13T03:27:11.876Z,12.10
2019-04-13T03:29:48.325Z,15.37
2019-04-13T03:32:22.167Z,5.33
2019-04-13T03:34:56.528Z,5.17
2019-04-13T03:37:30.730Z,3.03
2019-04-13T03:40:04.358Z,4.10
2019-04-13T03:42:38.077Z,4.47
2019-04-13T03:45:11.470Z,5.13
2019-04-13T03:47:47.188Z,7.50
2019-04-13T03:50:20.526Z,3.00
2019-04-13T03:52:53.909Z,2.40
2019-04-13T03:55:27.786Z,4.93
2019-04-13T03:58:01.659Z,3.90
2019-04-13T04:00:36.657Z,3.50
2019-04-13T04:03:10.694Z,4.57
2019-04-13T04:05:44.535Z,6.37
2019-04-13T04:08:18.600Z,11.70
2019-04-13T04:10:52.291Z,9.23
2019-04-13T04:13:26.320Z,9.03
2019-04-13T04:16:00.264Z,13.50
2019-04-13T04:18:34.369Z,9.30
2019-04-13T04:21:10.535Z,4.50
2019-04-13T04:23:44.612Z,17.67
2019-04-13T04:26:20.100Z,30.43
2019-04-13T04:28:53.225Z,11.90
2019-04-13T04:31:26.873Z,11.77
2019-04-13T04:34:01.610Z,6.63
2019-04-13T04:36:34.751Z,10.03
2019-04-13T04:39:09.672Z,36.57
2019-04-13T04:41:43.425Z,29.87
2019-04-13T04:44:17.520Z,10.47
2019-04-13T04:46:53.326Z,14.43
2019-04-13T04:49:26.959Z,4.47
2019-04-13T04:52:00.682Z,12.63
2019-04-13T04:54:34.859Z,14.43
2019-04-13T04:57:08.762Z,7.90
2019-04-13T04:59:48.421Z,5.90
2019-04-13T05:02:23.260Z,5.83
2019-04-13T05:04:59.595Z,7.13
2019-04-13T05:07:34.237Z,6.13
2019-04-13T05:10:11.726Z,14.50
2019-04-13T05:12:45.555Z,7.23
2019-04-13T05:15:20.221Z,7.30
2019-04-13T05:17:53.835Z,5.27
2019-04-13T05:20:29.510Z,5.17
2019-04-13T05:23:07.098Z,10.43
2019-04-13T05:25:41.711Z,11.17
2019-04-13T05:28:18.397Z,13.10
2019-04-13T05:30:53.679Z,6.83
2019-04-13T05:33:32.844Z,19.40
2019-04-13T05:36:24.022Z,13.53
2019-04-13T05:38:57.592Z,17.53
2019-04-13T05:41:36.995Z,6.00
2019-04-13T05:44:11.881Z,14.90
2019-04-13T05:46:50.323Z,23.20
2019-04-13T05:49:24.499Z,6.33
2019-04-13T05:52:02.114Z,18.07
2019-04-13T05:54:38.336Z,12.93
2019-04-13T05:57:14.102Z,9.20
2019-04-13T05:59:47.505Z,13.90
2019-04-13T06:02:26.604Z,14.10
2019-04-13T06:05:02.601Z,17.60
2019-04-13T06:07:45.026Z,11.27
2019-04-13T06:10:21.446Z,9.47
2019-04-13T06:12:57.834Z,16.03
2019-04-13T06:15:36.020Z,24.00
2019-04-13T06:18:20.781Z,16.50
2019-04-13T06:20:46.855Z,5.83
2019-04-13T06:23:22.264Z,6.87
2019-04-13T06:25:59.722Z,13.83
2019-04-13T06:28:32.344Z,10.50
2019-04-13T06:31:33.642Z,7.20
2019-04-13T06:34:35.269Z,12.77
2019-04-13T06:37:12.453Z,5.80
2019-04-13T06:39:45.977Z,7.23
2019-04-13T06:42:25.798Z,7.23
2019-04-13T06:45:00.143Z,13.07
2019-04-13T06:47:37.286Z,7.60
2019-04-13T06:50:14.263Z,11.67
2019-04-13T06:52:49.887Z,13.27
2019-04-13T06:55:24.694Z,6.47
2019-04-13T06:58:00.366Z,23.47
2019-04-13T07:00:34.621Z,19.83
2019-04-13T07:03:08.114Z,24.20
2019-04-13T07:05:45.056Z,23.47
2019-04-13T07:08:41.468Z,6.53
2019-04-13T07:11:39.482Z,9.37
2019-04-13T07:14:15.718Z,27.47
2019-04-13T07:17:18.003Z,15.90
2019-04-13T07:19:55.439Z,12.70
2019-04-13T07:22:30.866Z,20.80
2019-04-13T07:25:10.478Z,7.90
2019-04-13T07:27:43.749Z,8.70
2019-04-13T07:30:22.411Z,14.07
2019-04-13T07:33:00.774Z,11.97
2019-04-13T07:35:36.764Z,9.17
2019-04-13T07:38:20.541Z,20.30
2019-04-13T07:41:00.592Z,11.73
2019-04-13T07:43:35.806Z,8.60
2019-04-13T07:46:37.265Z,23.43
2019-04-13T07:49:28.112Z,17.13
2019-04-13T07:52:19.997Z,4.70
2019-04-13T07:54:54.709Z,12.17
2019-04-13T07:57:38.605Z,7.53
2019-04-13T08:00:13.812Z,10.73
2019-04-13T08:02:50.476Z,6.53
2019-04-13T08:05:26.556Z,10.67
2019-04-13T08:08:02.928Z,5.97
2019-04-13T08:10:39.402Z,14.10
2019-04-13T08:13:14.798Z,8.20
2019-04-13T08:15:49.806Z,6.43
2019-04-13T08:18:45.938Z,10.03
2019-04-13T08:21:24.079Z,5.87
2019-04-13T08:23:59.454Z,12.17
2019-04-13T08:26:33.108Z,11.93
2019-04-13T08:29:08.928Z,23.80
2019-04-13T08:31:43.572Z,6.93
2019-04-13T08:34:19.971Z,9.00
2019-04-13T08:36:53.782Z,10.73
2019-04-13T08:39:28.611Z,15.10
2019-04-13T08:42:03.989Z,9.30
2019-04-13T08:44:40.055Z,7.20
2019-04-13T08:47:16.212Z,7.17
2019-04-13T08:49:50.836Z,5.77
2019-04-13T08:52:24.402Z,8.63
2019-04-13T08:55:05.859Z,7.47
2019-04-13T08:57:47.920Z,27.70
2019-04-13T09:00:26.261Z,14.67
2019-04-13T09:03:02.753Z,8.47
2019-04-13T09:05:44.834Z,4.33
2019-04-13T09:08:28.910Z,12.07
2019-04-13T09:11:04.335Z,19.37
2019-04-13T09:13:38.295Z,6.10
2019-04-13T09:16:28.702Z,6.40
2019-04-13T09:19:22.950Z,7.77
2019-04-13T09:22:03.233Z,14.77
2019-04-13T09:24:37.800Z,7.97
2019-04-13T09:27:13.726Z,10.80
2019-04-13T09:29:47.819Z,4.03
2019-04-13T09:32:21.994Z,13.27
2019-04-13T09:34:59.101Z,8.87
2019-04-13T09:37:35.144Z,6.50
2019-04-13T09:40:09.185Z,6.60
2019-04-13T09:42:51.086Z,7.77
2019-04-13T09:45:25.136Z,5.83
2019-04-13T09:48:01.262Z,4.87
2019-04-13T09:50:36.882Z,8.40
2019-04-13T09:53:13.090Z,5.63
2019-04-13T09:55:49.997Z,13.47
2019-04-13T09:58:26.558Z,13.27
2019-04-13T10:01:02.981Z,13.07
2019-04-13T10:03:41.274Z,13.30
2019-04-13T10:06:16.932Z,11.07
2019-04-13T10:08:56.010Z,6.13
2019-04-13T10:11:40.206Z,7.67
2019-04-13T10:14:36.438Z,5.23
2019-04-13T10:17:23.519Z,5.60
2019-04-13T10:20:00.006Z,7.70
2019-04-13T10:22:34.178Z,9.17
2019-04-13T10:25:10.306Z,6.27
2019-04-13T10:27:47.671Z,10.57
2019-04-13T10:30:23.345Z,11.03
2019-04-13T10:32:58.403Z,9.10
2019-04-13T10:35:33.315Z,5.00
2019-04-13T10:38:19.651Z,3.93
2019-04-13T10:40:57.205Z,5.43
2019-04-13T10:43:32.909Z,6.37
2019-04-13T10:46:28.224Z,4.97
2019-04-13T10:49:34.468Z,7.70
2019-04-13T10:52:27.804Z,5.63
2019-04-13T10:55:02.002Z,8.03
2019-04-13T10:57:38.693Z,6.57
2019-04-13T11:00:13.674Z,4.87
2019-04-13T11:02:53.849Z,9.67
2019-04-13T11:05:27.676Z,12.17
2019-04-13T11:08:02.687Z,5.77
2019-04-13T11:10:36.472Z,4.70
2019-04-13T11:13:10.916Z,5.30
2019-04-13T11:15:50.556Z,4.20
2019-04-13T11:18:27.494Z,3.73
2019-04-13T11:25:02.539Z,10.13
2019-04-13T11:27:38.437Z,9.27
2019-04-13T11:30:16.718Z,6.37
2019-04-13T11:32:56.713Z,7.23
2019-04-13T11:35:36.393Z,6.13
2019-04-13T11:38:18.685Z,5.77
2019-04-13T11:41:06.579Z,7.77
2019-04-13T11:44:07.392Z,4.23
2019-04-13T11:47:11.288Z,5.17
2019-04-13T11:49:47.567Z,5.27
2019-04-13T11:52:22.736Z,5.17
2019-04-13T11:55:00.097Z,6.03
2019-04-13T11:57:37.703Z,6.43
2019-04-13T12:00:32.362Z,8.07
2019-04-13T12:03:45.658Z,9.17
2019-04-13T12:06:47.735Z,6.20
2019-04-13T12:09:49.668Z,3.57
2019-04-13T12:12:34.032Z,4.97
2019-04-13T12:15:59.312Z,3.23
2019-04-13T12:19:02.719Z,4.80
2019-04-13T12:22:04.756Z,5.87
2019-04-13T12:24:41.593Z,4.60
2019-04-13T12:27:15.934Z,5.93
2019-04-13T12:29:50.903Z,3.23
2019-04-13T12:32:31.695Z,4.07
2019-04-13T12:35:07.914Z,4.97
2019-04-13T12:37:43.613Z,5.27
2019-04-13T12:40:35.507Z,4.03
2019-04-13T12:43:09.904Z,6.10
2019-04-13T12:45:43.541Z,6.63
2019-04-13T12:48:18.776Z,5.77
2019-04-13T12:50:52.765Z,7.60
2019-04-13T12:53:26.568Z,8.83
2019-04-13T12:56:03.153Z,6.43
2019-04-13T12:58:39.361Z,9.43
2019-04-13T13:01:21.430Z,7.83
2019-04-13T13:04:07.416Z,10.07
2019-04-13T13:06:41.088Z,6.67
2019-04-13T13:09:17.283Z,4.87
2019-04-13T13:11:51.982Z,4.10
2019-04-13T13:14:29.010Z,5.93
2019-04-13T13:17:02.937Z,5.87
2019-04-13T13:19:37.446Z,8.37
2019-04-13T13:22:11.159Z,6.67
2019-04-13T13:24:45.602Z,8.47
2019-04-13T13:27:21.393Z,7.37
2019-04-13T13:29:57.848Z,22.53
2019-04-13T13:32:33.232Z,17.10
2019-04-13T13:35:07.169Z,9.47
2019-04-13T13:37:43.093Z,8.43
2019-04-13T13:40:30.460Z,8.57
2019-04-13T13:42:53.513Z,10.60
2019-04-13T13:45:29.766Z,6.87
2019-04-13T13:48:03.444Z,8.27
2019-04-13T13:50:37.279Z,7.07
2019-04-13T13:53:11.651Z,9.03
2019-04-13T13:55:47.257Z,13.33
2019-04-13T13:58:41.351Z,6.20
2019-04-13T14:01:28.560Z,7.03
2019-04-13T14:04:05.450Z,9.97
2019-04-13T14:06:43.039Z,14.80
2019-04-13T14:09:17.249Z,9.37
2019-04-13T14:11:51.066Z,8.67
2019-04-13T14:14:25.891Z,6.00
2019-04-13T14:16:59.772Z,9.37
2019-04-13T14:19:33.666Z,10.73
2019-04-13T14:22:17.293Z,9.60
2019-04-13T14:24:50.463Z,9.17
2019-04-13T14:27:24.538Z,11.03
2019-04-13T14:30:02.808Z,7.97
2019-04-13T14:32:37.431Z,10.63
2019-04-13T14:36:24.306Z,11.97
2019-04-13T14:39:03.073Z,8.23
2019-04-13T14:41:41.827Z,9.87
2019-04-13T14:44:19.602Z,15.40
2019-04-13T14:46:52.266Z,11.80
2019-04-13T14:49:28.198Z,10.90
2019-04-13T14:52:01.449Z,12.33
2019-04-13T14:54:35.405Z,13.73
2019-04-13T14:57:10.343Z,11.07
2019-04-13T14:59:49.259Z,12.20
2019-04-13T15:02:20.356Z,13.60
2019-04-13T15:04:53.573Z,12.70
2019-04-13T15:07:30.412Z,12.63
2019-04-13T15:10:05.930Z,15.03
2019-04-13T15:12:40.295Z,13.33
2019-04-13T15:15:13.552Z,17.10
2019-04-13T15:18:22.225Z,13.60
2019-04-13T15:20:58.312Z,13.27
2019-04-13T15:23:36.598Z,11.90
2019-04-13T15:26:10.294Z,8.73
2019-04-13T15:28:47.168Z,13.20
2019-04-13T15:31:27.324Z,16.60
2019-04-13T15:34:01.999Z,9.57
2019-04-13T15:36:35.707Z,15.73
2019-04-13T15:39:27.149Z,12.97
2019-04-13T15:42:08.560Z,9.10
2019-04-13T15:44:45.150Z,10.90
2019-04-13T15:47:22.212Z,11.53
2019-04-13T15:49:52.777Z,8.97
2019-04-13T15:52:26.754Z,8.67
2019-04-13T15:56:06.976Z,11.17
2019-04-13T15:58:48.994Z,11.33
2019-04-13T16:01:46.345Z,13.03
2019-04-13T16:04:21.269Z,11.77
2019-04-13T16:06:55.120Z,10.60
2019-04-13T16:09:47.795Z,11.23
2019-04-13T16:12:44.975Z,13.97
2019-04-13T16:15:25.121Z,14.23
2019-04-13T16:18:04.469Z,26.67
2019-04-13T16:20:55.986Z,17.70
2019-04-13T16:23:37.034Z,13.67
2019-04-13T16:26:10.402Z,13.33
2019-04-13T16:29:03.429Z,14.93
2019-04-13T16:31:57.083Z,13.43
2019-04-13T16:34:46.627Z,12.73
2019-04-13T16:37:34.210Z,10.57
2019-04-13T16:40:14.189Z,11.47
2019-04-13T16:42:50.935Z,9.07
2019-04-13T16:45:44.584Z,9.87
2019-04-13T16:48:44.833Z,8.60
2019-04-13T16:51:52.016Z,8.27
2019-04-13T16:54:56.845Z,12.50
2019-04-13T16:57:44.745Z,9.67
2019-04-13T17:00:54.044Z,9.63
2019-04-13T17:03:52.811Z,12.70
2019-04-13T17:06:29.131Z,9.57
2019-04-13T17:09:06.411Z,13.53
2019-04-13T17:11:41.946Z,11.07
2019-04-13T17:14:20.393Z,9.70
2019-04-13T17:17:01.317Z,8.70
2019-04-13T17:20:18.724Z,10.50
2019-04-13T17:23:14.969Z,11.93
2019-04-13T17:26:33.576Z,11.67
2019-04-13T17:29:31.598Z,10.33
2019-04-13T17:32:29.183Z,14.30
2019-04-13T17:35:13.876Z,17.13
2019-04-13T17:37:52.710Z,13.73
2019-04-13T17:40:36.298Z,15.03
2019-04-13T17:43:37.141Z,13.23
2019-04-13T17:46:33.900Z,12.40
2019-04-13T17:49:44.950Z,13.23
2019-04-13T17:52:46.502Z,12.57
2019-04-13T17:55:48.186Z,12.60
2019-04-13T17:58:50.453Z,12.50
2019-04-13T18:01:44.004Z,13.37
2019-04-13T18:04:37.350Z,18.93
2019-04-13T18:07:30.057Z,17.10
2019-04-13T18:10:42.300Z,19.07
2019-04-13T18:14:02.659Z,13.07
2019-04-13T18:17:15.819Z,14.53
2019-04-13T18:19:52.869Z,15.03
2019-04-13T18:22:28.854Z,17.23
2019-04-13T18:25:09.956Z,16.90
2019-04-13T18:27:45.651Z,15.87
2019-04-13T18:30:37.811Z,12.93
2019-04-13T18:33:09.791Z,12.67
2019-04-13T18:35:44.652Z,13.57
2019-04-13T18:38:19.419Z,17.63
2019-04-13T18:40:53.878Z,18.63
2019-04-13T18:43:30.124Z,15.50
2019-04-13T18:46:05.353Z,14.30
2019-04-13T18:48:44.851Z,17.57
2019-04-13T18:51:19.137Z,14.40
2019-04-13T18:53:54.969Z,17.50
2019-04-13T18:56:31.575Z,14.00
2019-04-13T18:59:06.542Z,13.93
2019-04-13T19:01:43.115Z,16.70
2019-04-13T19:04:17.997Z,18.97
2019-04-13T19:06:56.862Z,18.70
2019-04-13T19:09:31.811Z,13.27
2019-04-13T19:12:07.982Z,17.63
2019-04-13T19:14:42.473Z,14.30
2019-04-13T19:17:15.931Z,16.77
2019-04-13T19:19:50.999Z,18.77
2019-04-13T19:22:30.838Z,18.47
2019-04-13T19:25:05.069Z,14.77
2019-04-13T19:27:43.780Z,21.27
2019-04-13T19:30:17.831Z,17.90
2019-04-13T19:32:51.077Z,18.10
2019-04-13T19:35:29.737Z,21.93
2019-04-13T19:38:08.352Z,21.27
2019-04-13T19:40:43.082Z,23.97
2019-04-13T19:43:16.998Z,19.67
2019-04-13T19:45:50.943Z,19.27
2019-04-13T19:48:28.409Z,17.60
2019-04-13T19:51:03.875Z,15.87
2019-04-13T19:54:11.470Z,24.07
2019-04-13T19:56:47.516Z,17.70
2019-04-13T19:59:23.444Z,19.17
2019-04-13T20:01:59.790Z,20.40
2019-04-13T20:04:43.921Z,19.13
2019-04-13T20:07:20.295Z,18.07
2019-04-13T20:09:56.166Z,19.30
2019-04-13T20:12:30.075Z,15.77
2019-04-13T20:15:07.922Z,18.60
2019-04-13T20:17:42.153Z,18.13
2019-04-13T20:20:22.511Z,19.73
2019-04-13T20:22:59.294Z,16.73
2019-04-13T20:25:35.331Z,15.60
2019-04-13T20:28:11.789Z,14.67
2019-04-13T20:30:47.804Z,16.77
2019-04-13T20:33:22.095Z,16.90
2019-04-13T20:36:05.195Z,27.10
2019-04-13T20:38:34.822Z,20.33
2019-04-13T20:41:21.485Z,22.63
2019-04-13T20:44:02.907Z,17.20
2019-04-13T20:46:36.269Z,17.50
2019-04-13T20:49:10.721Z,16.53
2019-04-13T20:51:45.237Z,16.90
2019-04-13T20:54:19.940Z,19.80
2019-04-13T20:56:55.594Z,18.27
2019-04-13T20:59:34.619Z,15.87
2019-04-13T21:02:09.467Z,20.60
2019-04-13T21:04:48.074Z,15.60
2019-04-13T21:07:25.475Z,17.00
2019-04-13T21:09:59.602Z,14.10
2019-04-13T21:12:35.152Z,17.40
2019-04-13T21:15:11.872Z,13.50
2019-04-13T21:17:48.975Z,14.10
2019-04-13T21:20:34.018Z,12.33
2019-04-13T21:23:12.479Z,16.63
2019-04-13T21:25:47.344Z,12.43
2019-04-13T21:28:30.519Z,12.67
2019-04-13T21:31:07.027Z,11.70
2019-04-13T21:33:41.025Z,13.47
2019-04-13T21:36:17.331Z,13.20
2019-04-13T21:38:54.056Z,12.80
2019-04-13T21:41:30.347Z,13.20
2019-04-13T21:44:13.326Z,17.33
2019-04-13T21:46:40.041Z,12.07
2019-04-13T21:49:14.347Z,12.30
2019-04-13T21:55:37.750Z,14.90
2019-04-13T21:58:14.109Z,15.27
2019-04-13T22:01:16.886Z,13.53
2019-04-13T22:03:53.393Z,13.20
2019-04-13T22:06:29.890Z,13.80
2019-04-13T22:09:07.140Z,13.33
2019-04-13T22:11:43.056Z,14.13
2019-04-13T22:14:29.533Z,15.97
2019-04-13T22:16:56.365Z,21.97
2019-04-13T22:19:33.270Z,16.93
2019-04-13T22:22:09.634Z,17.87
2019-04-13T22:24:44.226Z,31.63
2019-04-13T22:27:18.354Z,21.87
2019-04-13T22:29:57.478Z,27.33
2019-04-13T22:32:45.101Z,57.47
2019-04-13T22:35:32.438Z,44.07
2019-04-13T22:38:06.998Z,39.03
2019-04-13T22:40:38.924Z,42.27
2019-04-13T22:43:13.286Z,56.67
2019-04-13T22:45:49.309Z,125.47
2019-04-13T22:48:44.754Z,85.03
2019-04-13T22:51:37.954Z,78.90
2019-04-13T22:54:36.384Z,67.83
2019-04-13T22:57:30.465Z,60.83
2019-04-13T23:00:14.764Z,53.90
2019-04-13T23:02:54.166Z,70.67
2019-04-13T23:05:28.677Z,67.30
2019-04-13T23:08:03.169Z,67.50
2019-04-13T23:10:37.580Z,61.20
2019-04-13T23:13:12.461Z,35.03
2019-04-13T23:15:47.075Z,35.97
2019-04-13T23:18:23.179Z,54.80
2019-04-13T23:20:58.248Z,63.30
2019-04-13T23:23:33.445Z,44.97
2019-04-13T23:26:08.015Z,43.40
2019-04-13T23:28:40.312Z,62.83
2019-04-13T23:31:14.945Z,64.07
2019-04-13T23:33:49.656Z,61.43
2019-04-13T23:36:22.889Z,52.63
2019-04-13T23:38:57.371Z,60.40
2019-04-13T23:41:32.256Z,43.07
2019-04-13T23:44:06.946Z,34.00
2019-04-13T23:46:40.041Z,43.03
2019-04-13T23:49:14.587Z,28.97
2019-04-13T23:51:48.865Z,37.53
2019-04-13T23:54:22.572Z,17.23
2019-04-13T23:57:16.450Z,46.90
